createdAt,value
2023-03-31T00:00:56.465Z,87.70
2023-03-31T00:01:56.451Z,87.59
2023-03-31T00:02:56.542Z,87.59
2023-03-31T00:03:56.571Z,88.10
2023-03-31T00:04:56.492Z,88.51
2023-03-31T00:05:56.367Z,89.02
2023-03-31T00:06:56.401Z,89.32
2023-03-31T00:07:56.360Z,89.32
2023-03-31T00:08:56.398Z,89.32
2023-03-31T00:10:06.902Z,89.23
2023-03-31T00:10:57.416Z,89.43
2023-03-31T00:11:56.316Z,89.32
2023-03-31T00:12:56.429Z,89.12
2023-03-31T00:13:56.269Z,89.43
2023-03-31T00:14:56.292Z,89.02
2023-03-31T00:15:56.341Z,89.12
2023-03-31T00:16:56.365Z,89.02
2023-03-31T00:17:56.239Z,89.12
2023-03-31T00:18:56.214Z,89.02
2023-03-31T00:19:56.238Z,89.32
2023-03-31T00:20:56.300Z,89.84
2023-03-31T00:21:56.170Z,90.35
2023-03-31T00:22:56.195Z,90.75
2023-03-31T00:23:56.165Z,90.96
2023-03-31T00:24:56.169Z,91.06
2023-03-31T00:25:56.169Z,91.27
2023-03-31T00:26:56.166Z,91.37
2023-03-31T00:27:56.123Z,91.57
2023-03-31T00:28:56.133Z,91.78
2023-03-31T00:29:56.103Z,92.08
2023-03-31T00:30:56.127Z,92.19
2023-03-31T00:31:56.150Z,92.39
2023-03-31T00:32:56.138Z,92.74
2023-03-31T00:33:56.019Z,92.94
2023-03-31T00:34:56.051Z,93.15
2023-03-31T00:35:56.036Z,93.35
2023-03-31T00:36:56.045Z,93.45
2023-03-31T00:37:55.995Z,93.55
2023-03-31T00:38:55.953Z,93.55
2023-03-31T00:39:55.937Z,93.66
2023-03-31T00:40:55.999Z,93.76
2023-03-31T00:41:55.953Z,93.86
2023-03-31T00:42:55.900Z,94.07
2023-03-31T00:43:55.900Z,94.27
2023-03-31T00:44:55.981Z,94.37
2023-03-31T00:45:55.937Z,94.58
2023-03-31T00:46:55.871Z,94.68
2023-03-31T00:47:55.945Z,94.78
2023-03-31T00:48:55.853Z,94.89
2023-03-31T00:49:55.849Z,94.98
2023-03-31T00:50:55.860Z,94.98
2023-03-31T00:51:55.819Z,95.09
2023-03-31T00:52:55.811Z,95.19
2023-03-31T00:53:55.776Z,95.29
2023-03-31T00:54:55.767Z,95.19
2023-03-31T00:55:55.802Z,95.19
2023-03-31T00:56:55.779Z,95.19
2023-03-31T00:57:55.737Z,95.19
2023-03-31T00:58:55.700Z,95.19
2023-03-31T00:59:55.687Z,95.29
2023-03-31T01:00:55.747Z,95.29
2023-03-31T01:01:55.694Z,95.29
2023-03-31T01:02:55.730Z,95.39
2023-03-31T01:03:55.747Z,95.39
2023-03-31T01:04:55.645Z,95.50
2023-03-31T01:05:55.630Z,95.50
2023-03-31T01:06:55.627Z,95.50
2023-03-31T01:07:55.584Z,95.60
2023-03-31T01:08:55.576Z,95.60
2023-03-31T01:09:55.590Z,95.60
2023-03-31T01:10:55.608Z,95.60
2023-03-31T01:11:55.543Z,95.70
2023-03-31T01:12:55.519Z,95.80
2023-03-31T01:13:55.515Z,95.80
2023-03-31T01:14:55.568Z,95.90
2023-03-31T01:15:55.486Z,95.90
2023-03-31T01:16:55.547Z,96.01
2023-03-31T01:17:55.601Z,96.05
2023-03-31T01:18:55.451Z,96.01
2023-03-31T01:19:55.462Z,96.15
2023-03-31T01:20:55.444Z,96.15
2023-03-31T01:21:55.431Z,96.15
2023-03-31T01:22:55.472Z,96.15
2023-03-31T01:23:55.403Z,96.15
2023-03-31T01:24:55.381Z,96.05
2023-03-31T01:25:55.339Z,96.05
2023-03-31T01:26:55.382Z,96.05
2023-03-31T01:27:55.340Z,96.05
2023-03-31T01:28:55.323Z,96.15
2023-03-31T01:29:55.302Z,96.15
2023-03-31T01:30:55.364Z,96.15
2023-03-31T01:31:55.265Z,96.26
2023-03-31T01:32:55.303Z,96.26
2023-03-31T01:33:55.274Z,96.36
2023-03-31T01:34:55.273Z,96.36
2023-03-31T01:35:55.238Z,96.46
2023-03-31T01:36:55.211Z,96.46
2023-03-31T01:37:55.228Z,96.46
2023-03-31T01:38:55.200Z,96.36
2023-03-31T01:39:55.162Z,96.46
2023-03-31T01:40:55.196Z,96.46
2023-03-31T01:41:55.163Z,96.46
2023-03-31T01:42:55.205Z,96.36
2023-03-31T01:43:55.144Z,96.36
2023-03-31T01:44:55.136Z,96.36
2023-03-31T01:45:55.170Z,96.46
2023-03-31T01:46:55.103Z,96.46
2023-03-31T01:47:55.127Z,96.46
2023-03-31T01:48:55.075Z,96.46
2023-03-31T01:49:55.044Z,96.46
2023-03-31T01:50:55.116Z,96.46
2023-03-31T01:51:55.025Z,96.46
2023-03-31T01:52:55.004Z,96.46
2023-03-31T01:53:55.055Z,96.46
2023-03-31T01:54:54.998Z,96.46
2023-03-31T01:55:54.990Z,96.46
2023-03-31T01:56:55.030Z,96.36
2023-03-31T01:57:54.971Z,96.36
2023-03-31T01:58:54.953Z,96.36
2023-03-31T01:59:54.940Z,96.36
2023-03-31T02:00:54.917Z,96.36
2023-03-31T02:01:54.986Z,96.46
2023-03-31T02:02:54.986Z,96.46
2023-03-31T02:03:54.957Z,96.46
2023-03-31T02:04:54.877Z,96.56
2023-03-31T02:05:54.862Z,96.56
2023-03-31T02:06:54.876Z,96.56
2023-03-31T02:07:54.847Z,96.56
2023-03-31T02:08:54.805Z,96.67
2023-03-31T02:09:54.791Z,96.77
2023-03-31T02:10:54.791Z,96.77
2023-03-31T02:11:54.839Z,96.87
2023-03-31T02:12:54.747Z,96.87
2023-03-31T02:13:54.731Z,96.97
2023-03-31T02:14:54.763Z,96.97
2023-03-31T02:15:54.748Z,96.97
2023-03-31T02:16:54.843Z,97.08
2023-03-31T02:17:54.781Z,97.08
2023-03-31T02:18:54.709Z,97.17
2023-03-31T02:19:54.689Z,97.17
2023-03-31T02:20:54.685Z,97.28
2023-03-31T02:21:54.686Z,97.28
2023-03-31T02:22:54.672Z,97.28
2023-03-31T02:23:54.608Z,97.38
2023-03-31T02:24:54.608Z,97.49
2023-03-31T02:25:54.627Z,97.49
2023-03-31T02:26:54.628Z,97.58
2023-03-31T02:27:54.560Z,97.58
2023-03-31T02:28:54.571Z,97.58
2023-03-31T02:29:54.536Z,97.69
2023-03-31T02:30:54.539Z,97.69
2023-03-31T02:31:54.627Z,97.79
2023-03-31T02:32:54.558Z,97.79
2023-03-31T02:33:54.494Z,97.89
2023-03-31T02:34:54.473Z,97.89
2023-03-31T02:35:54.517Z,97.89
2023-03-31T02:36:54.471Z,97.89
2023-03-31T02:37:54.473Z,97.99
2023-03-31T02:38:54.420Z,97.99
2023-03-31T02:39:54.393Z,98.10
2023-03-31T02:40:54.414Z,98.10
2023-03-31T02:41:54.413Z,98.10
2023-03-31T02:42:54.369Z,98.20
2023-03-31T02:43:54.337Z,98.20
2023-03-31T02:44:54.380Z,98.20
2023-03-31T02:45:54.355Z,98.20
2023-03-31T02:46:54.344Z,98.20
2023-03-31T02:47:54.366Z,98.30
2023-03-31T02:48:54.327Z,98.20
2023-03-31T02:49:54.269Z,98.30
2023-03-31T02:50:54.289Z,98.20
2023-03-31T02:51:54.295Z,98.20
2023-03-31T02:52:54.289Z,98.20
2023-03-31T02:53:54.225Z,98.20
2023-03-31T02:54:54.215Z,98.30
2023-03-31T02:55:54.249Z,98.30
2023-03-31T02:56:54.200Z,98.30
2023-03-31T02:57:54.166Z,98.30
2023-03-31T02:58:54.173Z,98.40
2023-03-31T02:59:54.149Z,98.40
2023-03-31T03:00:54.194Z,98.40
2023-03-31T03:01:54.170Z,98.40
2023-03-31T03:02:54.214Z,98.40
2023-03-31T03:03:54.142Z,98.50
2023-03-31T03:04:54.085Z,98.50
2023-03-31T03:05:54.070Z,98.55
2023-03-31T03:06:54.053Z,98.61
2023-03-31T03:07:54.066Z,98.65
2023-03-31T03:08:54.069Z,98.65
2023-03-31T03:09:54.042Z,98.61
2023-03-31T03:10:54.020Z,98.65
2023-03-31T03:11:54.020Z,98.65
2023-03-31T03:12:53.982Z,98.65
2023-03-31T03:13:53.986Z,98.65
2023-03-31T03:14:53.979Z,98.65
2023-03-31T03:15:53.985Z,98.65
2023-03-31T03:16:54.008Z,98.65
2023-03-31T03:17:53.995Z,98.65
2023-03-31T03:18:53.940Z,98.75
2023-03-31T03:19:53.899Z,98.75
2023-03-31T03:20:53.905Z,98.75
2023-03-31T03:21:53.932Z,98.86
2023-03-31T03:22:53.861Z,98.86
2023-03-31T03:23:53.839Z,98.86
2023-03-31T03:24:53.821Z,98.96
2023-03-31T03:25:53.824Z,98.96
2023-03-31T03:26:53.816Z,98.96
2023-03-31T03:27:53.836Z,98.96
2023-03-31T03:28:53.791Z,98.96
2023-03-31T03:29:53.785Z,99.06
2023-03-31T03:30:53.772Z,99.06
2023-03-31T03:31:53.803Z,99.06
2023-03-31T03:32:53.778Z,99.06
2023-03-31T03:33:53.785Z,99.06
2023-03-31T03:34:53.718Z,99.06
2023-03-31T03:35:53.729Z,99.06
2023-03-31T03:36:53.676Z,99.06
2023-03-31T03:37:53.675Z,99.06
2023-03-31T03:38:53.683Z,99.16
2023-03-31T03:39:53.679Z,99.16
2023-03-31T03:40:53.667Z,99.16
2023-03-31T03:41:53.662Z,99.16
2023-03-31T03:42:53.606Z,99.16
2023-03-31T03:43:53.633Z,99.16
2023-03-31T03:44:53.574Z,99.16
2023-03-31T03:45:53.653Z,99.16
2023-03-31T03:46:53.560Z,99.16
2023-03-31T03:47:53.597Z,99.06
2023-03-31T03:48:53.565Z,99.06
2023-03-31T03:49:53.513Z,99.06
2023-03-31T03:50:53.510Z,98.96
2023-03-31T03:51:53.526Z,98.96
2023-03-31T03:52:53.495Z,98.96
2023-03-31T03:53:53.481Z,98.75
2023-03-31T03:54:53.478Z,98.65
2023-03-31T03:55:53.453Z,98.55
2023-03-31T03:56:53.480Z,98.55
2023-03-31T03:57:53.503Z,98.45
2023-03-31T03:58:53.387Z,98.35
2023-03-31T03:59:53.424Z,98.35
2023-03-31T04:00:53.355Z,98.24
2023-03-31T04:01:53.427Z,98.24
2023-03-31T04:02:53.403Z,98.14
2023-03-31T04:03:53.386Z,98.14
2023-03-31T04:04:53.349Z,98.04
2023-03-31T04:05:53.318Z,98.04
2023-03-31T04:06:53.310Z,98.04
2023-03-31T04:07:53.308Z,97.94
2023-03-31T04:08:53.277Z,97.83
2023-03-31T04:09:53.275Z,97.74
2023-03-31T04:10:53.235Z,97.74
2023-03-31T04:11:53.279Z,97.63
2023-03-31T04:12:53.195Z,97.53
2023-03-31T04:13:53.241Z,97.53
2023-03-31T04:14:53.162Z,97.42
2023-03-31T04:15:53.243Z,97.42
2023-03-31T04:16:53.191Z,97.33
2023-03-31T04:17:53.216Z,97.12
2023-03-31T04:18:53.128Z,97.02
2023-03-31T04:19:53.115Z,96.61
2023-03-31T04:20:53.088Z,96.30
2023-03-31T04:21:53.118Z,96.30
2023-03-31T04:22:53.064Z,96.41
2023-03-31T04:23:53.085Z,96.41
2023-03-31T04:24:53.044Z,96.30
2023-03-31T04:25:53.043Z,96.20
2023-03-31T04:26:53.046Z,96.20
2023-03-31T04:27:53.046Z,96.20
2023-03-31T04:28:53.015Z,95.89
2023-03-31T04:29:53.009Z,95.79
2023-03-31T04:30:53.002Z,95.69
2023-03-31T04:31:53.055Z,95.69
2023-03-31T04:32:52.969Z,95.59
2023-03-31T04:33:52.973Z,95.59
2023-03-31T04:34:52.910Z,95.69
2023-03-31T04:35:53.062Z,95.59
2023-03-31T04:36:52.930Z,95.48
2023-03-31T04:37:52.928Z,95.59
2023-03-31T04:38:53.269Z,95.69
2023-03-31T04:39:52.874Z,95.59
2023-03-31T04:40:52.887Z,95.48
2023-03-31T04:41:52.906Z,95.48
2023-03-31T04:42:52.844Z,95.59
2023-03-31T04:43:52.846Z,95.48
2023-03-31T04:44:52.816Z,95.38
2023-03-31T04:45:52.888Z,95.38
2023-03-31T04:46:52.760Z,95.38
2023-03-31T04:47:52.844Z,95.18
2023-03-31T04:48:52.728Z,95.28
2023-03-31T04:49:52.743Z,95.28
2023-03-31T04:50:52.789Z,95.28
2023-03-31T04:51:52.737Z,95.28
2023-03-31T04:52:52.693Z,95.38
2023-03-31T04:53:52.697Z,95.48
2023-03-31T04:54:52.691Z,95.59
2023-03-31T04:55:52.664Z,95.69
2023-03-31T04:56:52.752Z,95.79
2023-03-31T04:57:52.745Z,95.79
2023-03-31T04:58:52.750Z,95.94
2023-03-31T04:59:52.642Z,96.04
2023-03-31T05:00:52.639Z,96.04
2023-03-31T05:01:52.592Z,96.04
2023-03-31T05:02:52.717Z,96.14
2023-03-31T05:03:52.587Z,96.25
2023-03-31T05:04:52.577Z,96.34
2023-03-31T05:05:52.545Z,96.25
2023-03-31T05:06:52.512Z,96.04
2023-03-31T05:07:52.607Z,95.94
2023-03-31T05:08:52.485Z,95.94
2023-03-31T05:09:52.476Z,95.73
2023-03-31T05:10:52.471Z,95.84
2023-03-31T05:11:52.493Z,95.84
2023-03-31T05:12:52.459Z,95.94
2023-03-31T05:13:52.422Z,95.84
2023-03-31T05:14:52.430Z,95.84
2023-03-31T05:15:52.437Z,95.84
2023-03-31T05:16:52.409Z,95.73
2023-03-31T05:17:52.428Z,95.73
2023-03-31T05:18:52.344Z,95.73
2023-03-31T05:19:52.371Z,95.73
2023-03-31T05:20:52.323Z,95.53
2023-03-31T05:21:52.350Z,95.32
2023-03-31T05:22:52.364Z,95.32
2023-03-31T05:23:52.349Z,95.32
2023-03-31T05:24:52.295Z,95.43
2023-03-31T05:25:52.266Z,95.43
2023-03-31T05:26:52.313Z,95.32
2023-03-31T05:27:52.293Z,95.22
2023-03-31T05:28:52.279Z,95.02
2023-03-31T05:29:52.265Z,95.02
2023-03-31T05:30:52.198Z,95.02
2023-03-31T05:31:52.225Z,95.02
2023-03-31T05:32:52.244Z,95.02
2023-03-31T05:33:52.183Z,94.92
2023-03-31T05:34:52.322Z,94.81
2023-03-31T05:35:52.167Z,94.81
2023-03-31T05:36:52.162Z,94.60
2023-03-31T05:37:52.188Z,94.51
2023-03-31T05:38:52.085Z,94.26
2023-03-31T05:39:52.119Z,94.15
2023-03-31T05:40:52.072Z,94.15
2023-03-31T05:41:52.066Z,93.95
2023-03-31T05:42:52.066Z,93.85
2023-03-31T05:43:52.030Z,93.95
2023-03-31T05:44:52.035Z,93.95
2023-03-31T05:45:52.092Z,93.95
2023-03-31T05:46:52.069Z,94.06
2023-03-31T05:47:52.176Z,94.15
2023-03-31T05:48:51.981Z,94.06
2023-03-31T05:49:51.991Z,94.06
2023-03-31T05:50:51.983Z,94.06
2023-03-31T05:51:51.961Z,93.85
2023-03-31T05:52:51.959Z,93.95
2023-03-31T05:53:51.932Z,94.06
2023-03-31T05:54:51.954Z,94.06
2023-03-31T05:55:51.908Z,94.06
2023-03-31T05:56:51.878Z,93.95
2023-03-31T05:57:51.862Z,94.06
2023-03-31T05:58:51.849Z,94.15
2023-03-31T05:59:51.892Z,93.95
2023-03-31T06:00:51.872Z,93.74
2023-03-31T06:01:51.893Z,93.85
2023-03-31T06:02:51.882Z,93.95
2023-03-31T06:03:51.847Z,94.06
2023-03-31T06:04:51.745Z,94.06
2023-03-31T06:05:51.756Z,94.06
2023-03-31T06:06:51.718Z,94.06
2023-03-31T06:07:51.817Z,94.06
2023-03-31T06:08:51.697Z,94.06
2023-03-31T06:09:51.727Z,94.26
2023-03-31T06:10:51.722Z,94.36
2023-03-31T06:11:51.692Z,94.36
2023-03-31T06:12:51.657Z,94.46
2023-03-31T06:13:51.680Z,94.67
2023-03-31T06:14:51.655Z,94.77
2023-03-31T06:15:51.672Z,94.67
2023-03-31T06:16:51.618Z,94.67
2023-03-31T06:17:51.659Z,94.77
2023-03-31T06:18:51.627Z,94.77
2023-03-31T06:19:51.617Z,94.87
2023-03-31T06:20:51.567Z,95.07
2023-03-31T06:21:51.592Z,95.18
2023-03-31T06:22:51.524Z,95.18
2023-03-31T06:23:51.531Z,95.07
2023-03-31T06:24:51.742Z,95.18
2023-03-31T06:25:52.078Z,95.18
2023-03-31T06:26:53.598Z,95.12
2023-03-31T06:27:51.500Z,95.22
2023-03-31T06:28:51.457Z,95.32
2023-03-31T06:29:51.457Z,95.32
2023-03-31T06:30:51.453Z,95.12
2023-03-31T06:31:51.461Z,94.81
2023-03-31T06:32:51.439Z,94.60
2023-03-31T06:33:51.443Z,94.51
2023-03-31T06:34:51.416Z,94.51
2023-03-31T06:35:51.397Z,94.71
2023-03-31T06:36:51.376Z,94.40
2023-03-31T06:37:51.331Z,94.40
2023-03-31T06:38:51.429Z,94.30
2023-03-31T06:39:51.402Z,94.10
2023-03-31T06:40:51.310Z,93.79
2023-03-31T06:41:51.346Z,93.99
2023-03-31T06:42:51.306Z,93.89
2023-03-31T06:43:51.458Z,93.89
2023-03-31T06:44:51.256Z,94.10
2023-03-31T06:45:53.374Z,94.10
2023-03-31T06:46:51.221Z,93.93
2023-03-31T06:47:51.401Z,94.04
2023-03-31T06:48:51.180Z,94.24
2023-03-31T06:49:51.189Z,94.34
2023-03-31T06:50:51.182Z,94.24
2023-03-31T06:51:51.190Z,94.24
2023-03-31T06:52:51.118Z,94.34
2023-03-31T06:53:51.206Z,94.45
2023-03-31T06:54:51.139Z,94.55
2023-03-31T06:55:51.122Z,94.65
2023-03-31T06:56:51.126Z,94.75
2023-03-31T06:57:51.136Z,95.06
2023-03-31T06:58:51.082Z,95.12
2023-03-31T06:59:51.089Z,95.17
2023-03-31T07:00:51.123Z,94.96
2023-03-31T07:01:51.056Z,94.85
2023-03-31T07:02:51.092Z,94.96
2023-03-31T07:03:51.044Z,94.85
2023-03-31T07:04:50.991Z,94.81
2023-03-31T07:05:51.083Z,94.81
2023-03-31T07:06:50.950Z,94.92
2023-03-31T07:07:50.994Z,94.92
2023-03-31T07:08:50.945Z,95.12
2023-03-31T07:09:50.954Z,95.02
2023-03-31T07:10:50.900Z,94.81
2023-03-31T07:11:50.911Z,94.51
2023-03-31T07:12:50.919Z,94.30
2023-03-31T07:13:50.915Z,94.10
2023-03-31T07:14:50.836Z,94.10
2023-03-31T07:15:50.954Z,93.99
2023-03-31T07:16:51.071Z,93.74
2023-03-31T07:18:50.795Z,93.54
2023-03-31T07:19:50.809Z,93.33
2023-03-31T07:20:50.999Z,93.44
2023-03-31T07:21:50.772Z,93.33
2023-03-31T07:22:50.788Z,93.24
2023-03-31T07:23:50.747Z,93.19
2023-03-31T07:24:50.745Z,93.09
2023-03-31T07:25:50.727Z,92.78
2023-03-31T07:26:50.710Z,92.47
2023-03-31T07:27:50.709Z,92.37
2023-03-31T07:28:50.681Z,91.96
2023-03-31T07:29:50.658Z,91.56
2023-03-31T07:30:50.679Z,91.46
2023-03-31T07:31:50.652Z,91.41
2023-03-31T07:32:50.696Z,91.31
2023-03-31T07:33:50.594Z,91.20
2023-03-31T07:34:50.584Z,91.11
2023-03-31T07:36:00.242Z,90.90
2023-03-31T07:36:51.600Z,90.39
2023-03-31T07:37:50.606Z,90.45
2023-03-31T07:38:50.561Z,90.45
2023-03-31T07:39:50.520Z,90.75
2023-03-31T07:41:01.928Z,90.45
2023-03-31T07:41:51.531Z,90.81
2023-03-31T07:42:50.526Z,90.51
2023-03-31T07:43:50.471Z,90.51
2023-03-31T07:44:50.469Z,90.20
2023-03-31T07:45:50.475Z,90.00
2023-03-31T07:46:50.467Z,90.16
2023-03-31T07:47:50.505Z,89.75
2023-03-31T07:48:50.437Z,89.55
2023-03-31T07:49:50.391Z,88.84
2023-03-31T07:50:50.413Z,88.22
2023-03-31T07:51:50.399Z,88.22
2023-03-31T07:52:50.425Z,88.12
2023-03-31T07:53:50.365Z,87.92
2023-03-31T07:54:50.356Z,87.57
2023-03-31T07:55:50.297Z,87.67
2023-03-31T07:56:50.386Z,87.88
2023-03-31T07:57:50.281Z,87.26
2023-03-31T07:58:50.322Z,87.37
2023-03-31T07:59:50.307Z,87.23
2023-03-31T08:00:50.297Z,87.32
2023-03-31T08:01:50.274Z,87.23
2023-03-31T08:02:50.265Z,87.32
2023-03-31T08:03:50.236Z,87.12
2023-03-31T08:04:50.225Z,86.30
2023-03-31T08:05:52.186Z,85.39
2023-03-31T08:06:50.230Z,85.66
2023-03-31T08:07:50.206Z,85.86
2023-03-31T08:08:50.202Z,85.75
2023-03-31T08:09:50.179Z,85.55
2023-03-31T08:10:50.189Z,84.94
2023-03-31T08:11:50.101Z,84.84
2023-03-31T08:12:50.125Z,85.75
2023-03-31T08:13:50.126Z,85.35
2023-03-31T08:14:50.075Z,85.66
2023-03-31T08:15:50.091Z,85.75
2023-03-31T08:16:50.082Z,85.86
2023-03-31T08:17:50.051Z,85.49
2023-03-31T08:18:50.053Z,85.39
2023-03-31T08:19:50.068Z,85.60
2023-03-31T08:20:50.074Z,85.39
2023-03-31T08:21:49.982Z,85.39
2023-03-31T08:22:49.976Z,85.69
2023-03-31T08:23:49.961Z,86.21
2023-03-31T08:24:49.992Z,86.00
2023-03-31T08:25:49.976Z,86.30
2023-03-31T08:26:50.025Z,85.49
2023-03-31T08:27:49.906Z,85.90
2023-03-31T08:28:49.969Z,85.90
2023-03-31T08:29:49.877Z,85.90
2023-03-31T08:30:49.904Z,85.28
2023-03-31T08:31:49.899Z,85.05
2023-03-31T08:32:49.907Z,84.53
2023-03-31T08:33:49.877Z,84.74
2023-03-31T08:34:49.841Z,85.35
2023-03-31T08:35:49.879Z,84.53
2023-03-31T08:36:49.776Z,84.94
2023-03-31T08:37:49.793Z,85.14
2023-03-31T08:38:49.800Z,84.84
2023-03-31T08:39:49.765Z,84.74
2023-03-31T08:40:49.797Z,84.64
2023-03-31T08:41:49.754Z,84.43
2023-03-31T08:42:49.774Z,84.33
2023-03-31T08:43:49.718Z,85.35
2023-03-31T08:44:49.765Z,85.25
2023-03-31T08:45:49.699Z,84.53
2023-03-31T08:46:49.721Z,84.94
2023-03-31T08:47:49.753Z,84.84
2023-03-31T08:48:49.715Z,84.74
2023-03-31T08:49:49.623Z,84.74
2023-03-31T08:50:49.662Z,83.62
2023-03-31T08:51:49.591Z,83.31
2023-03-31T08:52:49.642Z,83.07
2023-03-31T08:53:49.629Z,81.95
2023-03-31T08:54:49.574Z,82.35
2023-03-31T08:55:49.652Z,82.73
2023-03-31T08:56:49.608Z,82.42
2023-03-31T08:57:49.522Z,81.30
2023-03-31T08:58:49.574Z,82.01
2023-03-31T08:59:49.551Z,82.07
2023-03-31T09:00:49.594Z,82.38
2023-03-31T09:01:56.389Z,81.67
2023-03-31T09:02:50.527Z,79.74
2023-03-31T09:03:49.546Z,80.00
2023-03-31T09:04:49.456Z,80.31
2023-03-31T09:05:59.564Z,80.72
2023-03-31T09:06:50.414Z,79.05
2023-03-31T09:07:49.377Z,80.58
2023-03-31T09:08:49.395Z,79.25
2023-03-31T09:09:49.505Z,79.46
2023-03-31T09:10:49.361Z,80.07
2023-03-31T09:11:49.336Z,79.72
2023-03-31T09:12:49.322Z,79.32
2023-03-31T09:13:49.342Z,77.90
2023-03-31T09:14:49.311Z,78.20
2023-03-31T09:15:49.358Z,78.41
2023-03-31T09:16:49.297Z,77.19
2023-03-31T09:17:49.343Z,77.09
2023-03-31T09:18:49.298Z,78.20
2023-03-31T09:19:49.245Z,78.30
2023-03-31T09:20:49.314Z,78.88
2023-03-31T09:21:49.211Z,78.10
2023-03-31T09:22:49.283Z,78.00
2023-03-31T09:23:49.281Z,78.30
2023-03-31T09:24:49.194Z,77.29
2023-03-31T09:25:49.166Z,77.09
2023-03-31T09:26:49.194Z,76.88
2023-03-31T09:27:49.133Z,77.25
2023-03-31T09:28:49.144Z,77.05
2023-03-31T09:29:49.141Z,77.56
2023-03-31T09:30:49.144Z,78.57
2023-03-31T09:31:49.127Z,78.88
2023-03-31T09:32:49.175Z,77.15
2023-03-31T09:33:49.117Z,76.03
2023-03-31T09:34:49.081Z,74.71
2023-03-31T09:35:51.373Z,75.52
2023-03-31T09:36:49.051Z,74.82
2023-03-31T09:37:49.052Z,76.03
2023-03-31T09:38:49.044Z,74.41
2023-03-31T09:39:49.009Z,74.21
2023-03-31T09:40:49.036Z,74.71
2023-03-31T09:41:48.991Z,75.43
2023-03-31T09:42:48.985Z,75.02
2023-03-31T09:43:48.959Z,74.82
2023-03-31T09:44:48.994Z,75.02
2023-03-31T09:46:05.317Z,75.32
2023-03-31T09:46:49.968Z,74.31
2023-03-31T09:47:48.953Z,75.12
2023-03-31T09:48:48.876Z,73.70
2023-03-31T09:49:54.164Z,73.80
2023-03-31T09:50:49.852Z,73.60
2023-03-31T09:51:48.818Z,74.07
2023-03-31T09:52:48.846Z,74.38
2023-03-31T09:53:48.915Z,76.00
2023-03-31T09:54:48.783Z,74.68
2023-03-31T09:55:48.792Z,74.98
2023-03-31T09:56:48.859Z,74.34
2023-03-31T09:57:48.742Z,73.63
2023-03-31T09:58:48.780Z,73.53
2023-03-31T09:59:48.742Z,72.61
2023-03-31T10:00:48.752Z,73.49
2023-03-31T10:01:48.752Z,72.89
2023-03-31T10:02:48.801Z,72.99
2023-03-31T10:03:48.751Z,71.37
2023-03-31T10:04:48.672Z,71.40
2023-03-31T10:05:48.658Z,72.31
2023-03-31T10:06:48.679Z,73.80
2023-03-31T10:07:48.606Z,72.28
2023-03-31T10:08:48.683Z,73.49
2023-03-31T10:09:48.610Z,72.68
2023-03-31T10:10:48.584Z,72.38
2023-03-31T10:11:48.610Z,72.78
2023-03-31T10:12:49.637Z,72.48
2023-03-31T10:13:48.589Z,72.58
2023-03-31T10:14:48.532Z,71.16
2023-03-31T10:15:48.590Z,71.00
2023-03-31T10:16:48.537Z,72.21
2023-03-31T10:18:48.518Z,72.11
2023-03-31T10:19:48.491Z,71.94
2023-03-31T10:20:48.526Z,72.14
2023-03-31T10:21:48.452Z,73.06
2023-03-31T10:22:48.461Z,73.26
2023-03-31T10:23:48.470Z,72.82
2023-03-31T10:24:48.466Z,71.94
2023-03-31T10:25:48.416Z,72.55
2023-03-31T10:26:48.402Z,73.02
2023-03-31T10:27:48.381Z,71.03
2023-03-31T10:28:48.370Z,71.50
2023-03-31T10:29:48.354Z,72.61
2023-03-31T10:30:48.358Z,71.20
2023-03-31T10:31:48.384Z,70.79
2023-03-31T10:32:51.271Z,72.72
2023-03-31T10:33:48.434Z,72.89
2023-03-31T10:34:48.273Z,72.28
2023-03-31T10:35:48.333Z,71.67
2023-03-31T10:36:48.298Z,72.14
2023-03-31T10:37:48.222Z,71.73
2023-03-31T10:38:48.418Z,71.94
2023-03-31T10:39:48.196Z,72.72
2023-03-31T10:40:48.252Z,71.00
2023-03-31T10:41:48.187Z,71.50
2023-03-31T10:42:48.201Z,71.50
2023-03-31T10:43:48.186Z,69.88
2023-03-31T10:44:48.167Z,71.09
2023-03-31T10:45:48.140Z,69.48
2023-03-31T10:46:48.147Z,70.08
2023-03-31T10:47:48.149Z,69.51
2023-03-31T10:48:48.133Z,69.71
2023-03-31T10:49:48.093Z,69.34
2023-03-31T10:50:48.097Z,70.25
2023-03-31T10:51:48.058Z,70.96
2023-03-31T10:52:48.051Z,70.96
2023-03-31T10:53:48.046Z,73.33
2023-03-31T10:54:48.051Z,75.05
2023-03-31T10:55:48.000Z,76.87
2023-03-31T10:56:49.341Z,78.44
2023-03-31T10:57:48.021Z,80.91
2023-03-31T10:58:58.339Z,82.53
2023-03-31T10:59:48.965Z,83.12
2023-03-31T11:00:47.966Z,82.40
2023-03-31T11:01:47.983Z,83.06
2023-03-31T11:02:48.034Z,84.82
2023-03-31T11:03:48.018Z,84.92
2023-03-31T11:04:47.911Z,84.92
2023-03-31T11:05:47.889Z,84.45
2023-03-31T11:06:47.850Z,84.05
2023-03-31T11:07:47.943Z,84.25
2023-03-31T11:08:47.900Z,84.66
2023-03-31T11:09:47.803Z,85.92
2023-03-31T11:10:47.797Z,86.88
2023-03-31T11:11:47.792Z,89.06
2023-03-31T11:12:47.789Z,90.79
2023-03-31T11:13:47.783Z,91.85
2023-03-31T11:14:47.777Z,93.12
2023-03-31T11:15:47.778Z,93.26
2023-03-31T11:16:47.777Z,93.10
2023-03-31T11:17:47.744Z,93.86
2023-03-31T11:18:47.733Z,94.68
2023-03-31T11:19:47.691Z,94.82
2023-03-31T11:20:47.695Z,94.73
2023-03-31T11:21:47.700Z,95.23
2023-03-31T11:22:47.782Z,95.75
2023-03-31T11:23:47.689Z,95.38
2023-03-31T11:24:47.618Z,95.85
2023-03-31T11:25:47.636Z,96.15
2023-03-31T11:26:47.630Z,95.95
2023-03-31T11:27:47.574Z,96.05
2023-03-31T11:28:47.619Z,96.42
2023-03-31T11:29:47.534Z,96.62
2023-03-31T11:30:47.581Z,96.62
2023-03-31T11:31:47.699Z,96.58
2023-03-31T11:32:47.527Z,96.17
2023-03-31T11:33:47.541Z,95.96
2023-03-31T11:34:47.477Z,95.96
2023-03-31T11:35:47.519Z,95.31
2023-03-31T11:36:47.461Z,95.00
2023-03-31T11:37:47.455Z,94.49
2023-03-31T11:38:47.479Z,94.70
2023-03-31T11:39:47.435Z,94.55
2023-03-31T11:40:47.425Z,94.45
2023-03-31T11:41:47.397Z,94.75
2023-03-31T11:42:47.406Z,95.01
2023-03-31T11:43:47.404Z,95.12
2023-03-31T11:44:47.380Z,94.60
2023-03-31T11:45:47.429Z,94.09
2023-03-31T11:46:48.493Z,94.09
2023-03-31T11:47:47.453Z,93.74
2023-03-31T11:48:47.320Z,93.54
2023-03-31T11:49:47.343Z,93.44
2023-03-31T11:50:47.318Z,93.44
2023-03-31T11:51:47.315Z,93.74
2023-03-31T11:52:47.281Z,93.44
2023-03-31T11:53:47.322Z,93.19
2023-03-31T11:54:47.240Z,93.50
2023-03-31T11:55:47.235Z,93.60
2023-03-31T11:56:47.206Z,93.40
2023-03-31T11:57:47.197Z,93.09
2023-03-31T11:58:47.175Z,92.74
2023-03-31T11:59:47.193Z,92.74
2023-03-31T12:00:47.205Z,92.74
2023-03-31T12:01:47.267Z,91.31
2023-03-31T12:02:47.187Z,90.70
2023-03-31T12:03:47.156Z,90.50
2023-03-31T12:04:47.097Z,91.11
2023-03-31T12:05:47.152Z,90.81
2023-03-31T12:06:47.101Z,90.97
2023-03-31T12:07:47.157Z,91.38
2023-03-31T12:08:47.073Z,90.97
2023-03-31T12:09:47.096Z,90.97
2023-03-31T12:10:47.041Z,91.48
2023-03-31T12:11:47.032Z,90.97
2023-03-31T12:12:47.018Z,90.36
2023-03-31T12:13:47.027Z,89.85
2023-03-31T12:14:46.995Z,89.18
2023-03-31T12:15:46.987Z,89.34
2023-03-31T12:16:46.940Z,89.75
2023-03-31T12:17:47.002Z,89.64
2023-03-31T12:18:46.933Z,89.75
2023-03-31T12:19:46.970Z,90.16
2023-03-31T12:20:46.915Z,89.34
2023-03-31T12:21:46.886Z,89.54
2023-03-31T12:22:46.900Z,89.81
2023-03-31T12:23:46.916Z,89.70
2023-03-31T12:24:46.909Z,90.22
2023-03-31T12:25:46.852Z,89.44
2023-03-31T12:26:46.870Z,89.24
2023-03-31T12:27:46.802Z,88.53
2023-03-31T12:28:46.820Z,87.41
2023-03-31T12:29:46.871Z,87.30
2023-03-31T12:30:46.784Z,86.69
2023-03-31T12:31:46.896Z,87.51
2023-03-31T12:32:46.837Z,85.98
2023-03-31T12:33:46.767Z,86.90
2023-03-31T12:34:46.734Z,86.94
2023-03-31T12:35:46.823Z,87.04
2023-03-31T12:36:46.689Z,86.94
2023-03-31T12:37:46.718Z,87.24
2023-03-31T12:38:46.696Z,88.36
2023-03-31T12:39:46.663Z,88.81
2023-03-31T12:40:46.653Z,89.22
2023-03-31T12:41:46.667Z,89.83
2023-03-31T12:42:46.634Z,89.42
2023-03-31T12:43:46.641Z,88.51
2023-03-31T12:44:46.627Z,88.51
2023-03-31T12:45:46.589Z,89.53
2023-03-31T12:46:46.656Z,88.51
2023-03-31T12:47:46.591Z,88.31
2023-03-31T12:48:46.601Z,88.40
2023-03-31T12:49:46.525Z,89.28
2023-03-31T12:50:46.514Z,88.67
2023-03-31T12:51:46.514Z,88.46
2023-03-31T12:52:46.536Z,89.07
2023-03-31T12:53:46.522Z,89.03
2023-03-31T12:54:46.489Z,89.03